sensor_id;sensor_type;location;lat;lon;timestamp;P1;durP1;ratioP1;P2;durP2;ratioP2
72924;SDS011;61070;50.794;7.054;2022-12-29T00:01:25;0.40;;;0.40;;
72924;SDS011;61070;50.794;7.054;2022-12-29T00:03:50;0.65;;;0.40;;
72924;SDS011;61070;50.794;7.054;2022-12-29T00:06:16;2.35;;;0.40;;
72924;SDS011;61070;50.794;7.054;2022-12-29T00:08:41;0.88;;;0.63;;
72924;SDS011;61070;50.794;7.054;2022-12-29T00:11:07;2.40;;;0.88;;
72924;SDS011;61070;50.794;7.054;2022-12-29T00:13:33;1.02;;;0.47;;
72924;SDS011;61070;50.794;7.054;2022-12-29T00:16:18;0.70;;;0.70;;
72924;SDS011;61070;50.794;7.054;2022-12-29T00:18:43;0.70;;;0.45;;
72924;SDS011;61070;50.794;7.054;2022-12-29T00:21:13;0.40;;;0.25;;
72924;SDS011;61070;50.794;7.054;2022-12-29T00:23:58;0.20;;;0.20;;
72924;SDS011;61070;50.794;7.054;2022-12-29T00:26:43;0.80;;;0.40;;
72924;SDS011;61070;50.794;7.054;2022-12-29T00:29:27;3.53;;;0.80;;
72924;SDS011;61070;50.794;7.054;2022-12-29T00:32:11;0.28;;;0.20;;
72924;SDS011;61070;50.794;7.054;2022-12-29T00:34:55;0.30;;;0.30;;
72924;SDS011;61070;50.794;7.054;2022-12-29T00:37:45;0.20;;;0.20;;
72924;SDS011;61070;50.794;7.054;2022-12-29T00:40:31;0.20;;;0.20;;
72924;SDS011;61070;50.794;7.054;2022-12-29T00:43:14;0.20;;;0.20;;
72924;SDS011;61070;50.794;7.054;2022-12-29T00:45:58;0.50;;;0.30;;
72924;SDS011;61070;50.794;7.054;2022-12-29T00:48:24;0.40;;;0.40;;
72924;SDS011;61070;50.794;7.054;2022-12-29T00:51:07;2.80;;;0.30;;
72924;SDS011;61070;50.794;7.054;2022-12-29T00:53:33;0.65;;;0.32;;
72924;SDS011;61070;50.794;7.054;2022-12-29T00:55:59;0.52;;;0.32;;
72924;SDS011;61070;50.794;7.054;2022-12-29T00:58:27;0.20;;;0.20;;
72924;SDS011;61070;50.794;7.054;2022-12-29T01:00:52;0.20;;;0.20;;
72924;SDS011;61070;50.794;7.054;2022-12-29T01:03:26;0.30;;;0.25;;
72924;SDS011;61070;50.794;7.054;2022-12-29T01:05:51;0.50;;;0.30;;
72924;SDS011;61070;50.794;7.054;2022-12-29T01:08:16;0.20;;;0.20;;
72924;SDS011;61070;50.794;7.054;2022-12-29T01:10:41;0.60;;;0.60;;
72924;SDS011;61070;50.794;7.054;2022-12-29T01:13:07;0.82;;;0.40;;
72924;SDS011;61070;50.794;7.054;2022-12-29T01:15:32;0.30;;;0.20;;
72924;SDS011;61070;50.794;7.054;2022-12-29T01:17:57;0.32;;;0.20;;
72924;SDS011;61070;50.794;7.054;2022-12-29T01:20:22;0.40;;;0.40;;
72924;SDS011;61070;50.794;7.054;2022-12-29T01:22:48;0.30;;;0.25;;
72924;SDS011;61070;50.794;7.054;2022-12-29T01:25:13;0.30;;;0.30;;
72924;SDS011;61070;50.794;7.054;2022-12-29T01:27:38;0.20;;;0.20;;
72924;SDS011;61070;50.794;7.054;2022-12-29T01:30:04;0.20;;;0.20;;
72924;SDS011;61070;50.794;7.054;2022-12-29T01:32:30;0.32;;;0.20;;
72924;SDS011;61070;50.794;7.054;2022-12-29T01:34:55;0.22;;;0.22;;
72924;SDS011;61070;50.794;7.054;2022-12-29T01:37:20;1.38;;;0.40;;
72924;SDS011;61070;50.794;7.054;2022-12-29T01:39:46;0.65;;;0.30;;
72924;SDS011;61070;50.794;7.054;2022-12-29T01:42:14;1.75;;;0.82;;
72924;SDS011;61070;50.794;7.054;2022-12-29T01:44:49;0.95;;;0.20;;
72924;SDS011;61070;50.794;7.054;2022-12-29T01:47:26;2.05;;;0.30;;
72924;SDS011;61070;50.794;7.054;2022-12-29T01:50:05;0.65;;;0.47;;
72924;SDS011;61070;50.794;7.054;2022-12-29T01:52:35;0.50;;;0.40;;
72924;SDS011;61070;50.794;7.054;2022-12-29T01:55:05;2.22;;;0.80;;
72924;SDS011;61070;50.794;7.054;2022-12-29T01:57:34;0.55;;;0.43;;
72924;SDS011;61070;50.794;7.054;2022-12-29T02:00:04;1.27;;;0.60;;
72924;SDS011;61070;50.794;7.054;2022-12-29T02:02:34;0.40;;;0.35;;
72924;SDS011;61070;50.794;7.054;2022-12-29T02:05:03;1.30;;;0.30;;
72924;SDS011;61070;50.794;7.054;2022-12-29T02:07:34;0.40;;;0.40;;
72924;SDS011;61070;50.794;7.054;2022-12-29T02:09:59;0.95;;;0.75;;
72924;SDS011;61070;50.794;7.054;2022-12-29T02:12:26;0.47;;;0.30;;
72924;SDS011;61070;50.794;7.054;2022-12-29T02:14:53;0.63;;;0.40;;
72924;SDS011;61070;50.794;7.054;2022-12-29T02:17:32;1.10;;;0.50;;
72924;SDS011;61070;50.794;7.054;2022-12-29T02:31:17;1.08;;;0.40;;
72924;SDS011;61070;50.794;7.054;2022-12-29T02:34:05;4.40;;;0.50;;
72924;SDS011;61070;50.794;7.054;2022-12-29T02:37:04;1.40;;;0.68;;
72924;SDS011;61070;50.794;7.054;2022-12-29T02:39:51;0.77;;;0.50;;
72924;SDS011;61070;50.794;7.054;2022-12-29T02:45:10;0.68;;;0.68;;
72924;SDS011;61070;50.794;7.054;2022-12-29T02:50:31;2.05;;;0.65;;
72924;SDS011;61070;50.794;7.054;2022-12-29T02:53:09;0.95;;;0.50;;
72924;SDS011;61070;50.794;7.054;2022-12-29T02:55:38;1.35;;;0.40;;
72924;SDS011;61070;50.794;7.054;2022-12-29T02:58:15;0.93;;;0.45;;
72924;SDS011;61070;50.794;7.054;2022-12-29T03:00:48;0.52;;;0.22;;
72924;SDS011;61070;50.794;7.054;2022-12-29T03:03:46;1.88;;;0.60;;
72924;SDS011;61070;50.794;7.054;2022-12-29T03:09:09;1.58;;;0.85;;
72924;SDS011;61070;50.794;7.054;2022-12-29T03:11:48;0.60;;;0.40;;
72924;SDS011;61070;50.794;7.054;2022-12-29T03:14:36;1.08;;;0.40;;
72924;SDS011;61070;50.794;7.054;2022-12-29T03:19:54;0.47;;;0.40;;
72924;SDS011;61070;50.794;7.054;2022-12-29T03:22:27;1.50;;;0.35;;
72924;SDS011;61070;50.794;7.054;2022-12-29T03:24:58;0.50;;;0.50;;
72924;SDS011;61070;50.794;7.054;2022-12-29T03:27:35;1.75;;;0.50;;
72924;SDS011;61070;50.794;7.054;2022-12-29T03:30:14;1.15;;;0.43;;
72924;SDS011;61070;50.794;7.054;2022-12-29T03:32:54;1.13;;;0.38;;
72924;SDS011;61070;50.794;7.054;2022-12-29T03:35:22;0.30;;;0.30;;
72924;SDS011;61070;50.794;7.054;2022-12-29T03:40:23;0.73;;;0.40;;
72924;SDS011;61070;50.794;7.054;2022-12-29T03:42:49;0.73;;;0.57;;
72924;SDS011;61070;50.794;7.054;2022-12-29T03:45:15;2.40;;;1.70;;
72924;SDS011;61070;50.794;7.054;2022-12-29T03:47:41;2.78;;;0.50;;
72924;SDS011;61070;50.794;7.054;2022-12-29T03:50:06;1.52;;;0.47;;
72924;SDS011;61070;50.794;7.054;2022-12-29T03:52:33;0.65;;;0.40;;
72924;SDS011;61070;50.794;7.054;2022-12-29T03:54:59;1.20;;;0.30;;
72924;SDS011;61070;50.794;7.054;2022-12-29T03:57:24;1.08;;;0.50;;
72924;SDS011;61070;50.794;7.054;2022-12-29T03:59:49;1.05;;;0.50;;
72924;SDS011;61070;50.794;7.054;2022-12-29T04:02:14;0.73;;;0.52;;
72924;SDS011;61070;50.794;7.054;2022-12-29T04:04:40;1.08;;;0.47;;
72924;SDS011;61070;50.794;7.054;2022-12-29T04:07:05;1.98;;;0.50;;
72924;SDS011;61070;50.794;7.054;2022-12-29T04:09:30;0.40;;;0.40;;
72924;SDS011;61070;50.794;7.054;2022-12-29T04:11:56;0.82;;;0.63;;
72924;SDS011;61070;50.794;7.054;2022-12-29T04:14:21;0.43;;;0.40;;
72924;SDS011;61070;50.794;7.054;2022-12-29T04:16:46;1.80;;;0.30;;
72924;SDS011;61070;50.794;7.054;2022-12-29T04:19:12;0.70;;;0.50;;
72924;SDS011;61070;50.794;7.054;2022-12-29T04:21:37;0.90;;;0.47;;
72924;SDS011;61070;50.794;7.054;2022-12-29T04:24:02;0.52;;;0.40;;
72924;SDS011;61070;50.794;7.054;2022-12-29T04:26:31;0.20;;;0.20;;
72924;SDS011;61070;50.794;7.054;2022-12-29T04:28:56;2.53;;;0.47;;
72924;SDS011;61070;50.794;7.054;2022-12-29T04:31:21;0.77;;;0.32;;
72924;SDS011;61070;50.794;7.054;2022-12-29T04:33:47;1.63;;;0.40;;
72924;SDS011;61070;50.794;7.054;2022-12-29T04:36:12;0.68;;;0.40;;
72924;SDS011;61070;50.794;7.054;2022-12-29T04:38:37;0.47;;;0.40;;
72924;SDS011;61070;50.794;7.054;2022-12-29T04:41:03;1.73;;;0.60;;
72924;SDS011;61070;50.794;7.054;2022-12-29T04:43:28;0.60;;;0.47;;
72924;SDS011;61070;50.794;7.054;2022-12-29T04:45:54;0.65;;;0.50;;
72924;SDS011;61070;50.794;7.054;2022-12-29T04:48:19;0.30;;;0.30;;
72924;SDS011;61070;50.794;7.054;2022-12-29T04:50:47;1.23;;;0.45;;
72924;SDS011;61070;50.794;7.054;2022-12-29T04:53:13;1.33;;;0.60;;
72924;SDS011;61070;50.794;7.054;2022-12-29T04:55:39;1.05;;;0.40;;
72924;SDS011;61070;50.794;7.054;2022-12-29T04:58:04;0.40;;;0.40;;
72924;SDS011;61070;50.794;7.054;2022-12-29T05:00:29;0.52;;;0.38;;
72924;SDS011;61070;50.794;7.054;2022-12-29T05:02:54;0.52;;;0.38;;
72924;SDS011;61070;50.794;7.054;2022-12-29T05:05:20;1.75;;;0.30;;
72924;SDS011;61070;50.794;7.054;2022-12-29T05:07:45;0.68;;;0.30;;
72924;SDS011;61070;50.794;7.054;2022-12-29T05:10:10;0.40;;;0.30;;
72924;SDS011;61070;50.794;7.054;2022-12-29T05:12:37;1.08;;;0.35;;
72924;SDS011;61070;50.794;7.054;2022-12-29T05:15:03;2.17;;;0.30;;
72924;SDS011;61070;50.794;7.054;2022-12-29T05:17:30;1.33;;;0.20;;
72924;SDS011;61070;50.794;7.054;2022-12-29T05:19:55;0.20;;;0.20;;
72924;SDS011;61070;50.794;7.054;2022-12-29T05:22:21;0.20;;;0.20;;
72924;SDS011;61070;50.794;7.054;2022-12-29T05:24:46;0.10;;;0.10;;
72924;SDS011;61070;50.794;7.054;2022-12-29T05:27:12;0.52;;;0.38;;
72924;SDS011;61070;50.794;7.054;2022-12-29T05:29:37;0.73;;;0.35;;
72924;SDS011;61070;50.794;7.054;2022-12-29T05:32:03;0.90;;;0.40;;
72924;SDS011;61070;50.794;7.054;2022-12-29T05:34:28;1.15;;;0.40;;
72924;SDS011;61070;50.794;7.054;2022-12-29T05:36:54;0.30;;;0.30;;
72924;SDS011;61070;50.794;7.054;2022-12-29T05:39:19;1.42;;;0.30;;
72924;SDS011;61070;50.794;7.054;2022-12-29T05:41:44;2.80;;;0.30;;
72924;SDS011;61070;50.794;7.054;2022-12-29T05:44:10;0.85;;;0.85;;
72924;SDS011;61070;50.794;7.054;2022-12-29T05:46:36;1.30;;;0.40;;
72924;SDS011;61070;50.794;7.054;2022-12-29T05:49:01;0.45;;;0.25;;
72924;SDS011;61070;50.794;7.054;2022-12-29T05:51:27;0.65;;;0.43;;
72924;SDS011;61070;50.794;7.054;2022-12-29T05:53:52;0.55;;;0.20;;
72924;SDS011;61070;50.794;7.054;2022-12-29T05:56:17;0.63;;;0.30;;
72924;SDS011;61070;50.794;7.054;2022-12-29T05:58:42;0.90;;;0.40;;
72924;SDS011;61070;50.794;7.054;2022-12-29T06:01:08;2.75;;;0.50;;
72924;SDS011;61070;50.794;7.054;2022-12-29T06:03:33;2.88;;;0.70;;
72924;SDS011;61070;50.794;7.054;2022-12-29T06:05:58;0.60;;;0.50;;
72924;SDS011;61070;50.794;7.054;2022-12-29T06:08:23;0.75;;;0.30;;
72924;SDS011;61070;50.794;7.054;2022-12-29T06:10:49;0.40;;;0.30;;
72924;SDS011;61070;50.794;7.054;2022-12-29T06:13:14;3.22;;;0.40;;
72924;SDS011;61070;50.794;7.054;2022-12-29T06:15:40;0.77;;;0.47;;
72924;SDS011;61070;50.794;7.054;2022-12-29T06:18:06;0.32;;;0.22;;
72924;SDS011;61070;50.794;7.054;2022-12-29T06:20:31;0.85;;;0.57;;
72924;SDS011;61070;50.794;7.054;2022-12-29T06:22:56;0.63;;;0.43;;
72924;SDS011;61070;50.794;7.054;2022-12-29T06:25:22;0.52;;;0.40;;
72924;SDS011;61070;50.794;7.054;2022-12-29T06:27:47;0.20;;;0.20;;
72924;SDS011;61070;50.794;7.054;2022-12-29T06:30:13;0.38;;;0.32;;
72924;SDS011;61070;50.794;7.054;2022-12-29T06:32:38;1.40;;;0.40;;
72924;SDS011;61070;50.794;7.054;2022-12-29T06:35:04;0.88;;;0.47;;
72924;SDS011;61070;50.794;7.054;2022-12-29T06:37:31;0.90;;;0.40;;
72924;SDS011;61070;50.794;7.054;2022-12-29T06:39:56;1.10;;;0.28;;
72924;SDS011;61070;50.794;7.054;2022-12-29T06:42:22;0.40;;;0.30;;
72924;SDS011;61070;50.794;7.054;2022-12-29T06:44:47;0.25;;;0.25;;
72924;SDS011;61070;50.794;7.054;2022-12-29T06:47:13;0.30;;;0.20;;
72924;SDS011;61070;50.794;7.054;2022-12-29T06:49:38;0.30;;;0.30;;
72924;SDS011;61070;50.794;7.054;2022-12-29T06:52:04;1.80;;;0.60;;
72924;SDS011;61070;50.794;7.054;2022-12-29T06:54:30;3.92;;;0.32;;
72924;SDS011;61070;50.794;7.054;2022-12-29T06:56:56;0.57;;;0.20;;
72924;SDS011;61070;50.794;7.054;2022-12-29T06:59:21;0.50;;;0.30;;
72924;SDS011;61070;50.794;7.054;2022-12-29T07:01:46;0.30;;;0.30;;
72924;SDS011;61070;50.794;7.054;2022-12-29T07:04:12;6.55;;;0.45;;
72924;SDS011;61070;50.794;7.054;2022-12-29T07:06:37;0.32;;;0.22;;
72924;SDS011;61070;50.794;7.054;2022-12-29T07:09:02;1.00;;;0.32;;
72924;SDS011;61070;50.794;7.054;2022-12-29T07:11:28;0.55;;;0.40;;
72924;SDS011;61070;50.794;7.054;2022-12-29T07:13:53;0.77;;;0.30;;
72924;SDS011;61070;50.794;7.054;2022-12-29T07:16:18;3.15;;;0.65;;
72924;SDS011;61070;50.794;7.054;2022-12-29T07:18:44;2.55;;;0.52;;
72924;SDS011;61070;50.794;7.054;2022-12-29T07:21:09;0.95;;;0.40;;
72924;SDS011;61070;50.794;7.054;2022-12-29T07:23:35;0.82;;;0.30;;
72924;SDS011;61070;50.794;7.054;2022-12-29T07:26:01;1.40;;;0.40;;
72924;SDS011;61070;50.794;7.054;2022-12-29T07:30:57;1.88;;;0.40;;
72924;SDS011;61070;50.794;7.054;2022-12-29T07:33:22;3.47;;;0.60;;
72924;SDS011;61070;50.794;7.054;2022-12-29T07:35:48;4.47;;;0.50;;
72924;SDS011;61070;50.794;7.054;2022-12-29T07:38:13;3.58;;;0.82;;
72924;SDS011;61070;50.794;7.054;2022-12-29T07:40:38;2.60;;;0.75;;
72924;SDS011;61070;50.794;7.054;2022-12-29T07:43:03;3.05;;;0.68;;
72924;SDS011;61070;50.794;7.054;2022-12-29T07:45:29;1.75;;;0.52;;
72924;SDS011;61070;50.794;7.054;2022-12-29T07:47:54;2.08;;;0.55;;
72924;SDS011;61070;50.794;7.054;2022-12-29T07:50:20;2.95;;;0.95;;
72924;SDS011;61070;50.794;7.054;2022-12-29T07:52:45;1.45;;;0.40;;
72924;SDS011;61070;50.794;7.054;2022-12-29T07:55:12;3.10;;;0.52;;
72924;SDS011;61070;50.794;7.054;2022-12-29T07:57:38;2.80;;;0.35;;
72924;SDS011;61070;50.794;7.054;2022-12-29T08:00:04;1.42;;;0.40;;
72924;SDS011;61070;50.794;7.054;2022-12-29T08:02:29;2.25;;;0.55;;
72924;SDS011;61070;50.794;7.054;2022-12-29T08:04:55;3.20;;;0.98;;
72924;SDS011;61070;50.794;7.054;2022-12-29T08:07:20;3.35;;;0.60;;
72924;SDS011;61070;50.794;7.054;2022-12-29T08:09:45;5.65;;;0.70;;
72924;SDS011;61070;50.794;7.054;2022-12-29T08:12:11;0.70;;;0.43;;
72924;SDS011;61070;50.794;7.054;2022-12-29T08:14:36;1.95;;;0.45;;
72924;SDS011;61070;50.794;7.054;2022-12-29T08:17:01;1.95;;;0.85;;
72924;SDS011;61070;50.794;7.054;2022-12-29T08:19:27;2.00;;;0.45;;
72924;SDS011;61070;50.794;7.054;2022-12-29T08:21:52;3.78;;;0.57;;
72924;SDS011;61070;50.794;7.054;2022-12-29T08:24:18;3.22;;;0.80;;
72924;SDS011;61070;50.794;7.054;2022-12-29T08:26:43;4.05;;;0.75;;
72924;SDS011;61070;50.794;7.054;2022-12-29T08:29:08;3.42;;;0.60;;
72924;SDS011;61070;50.794;7.054;2022-12-29T08:31:34;2.40;;;0.70;;
72924;SDS011;61070;50.794;7.054;2022-12-29T08:33:59;5.35;;;0.82;;
72924;SDS011;61070;50.794;7.054;2022-12-29T08:36:26;4.68;;;0.60;;
72924;SDS011;61070;50.794;7.054;2022-12-29T08:38:51;3.20;;;0.70;;
72924;SDS011;61070;50.794;7.054;2022-12-29T08:41:17;2.85;;;0.80;;
72924;SDS011;61070;50.794;7.054;2022-12-29T08:43:45;3.33;;;0.80;;
72924;SDS011;61070;50.794;7.054;2022-12-29T08:46:12;2.28;;;0.82;;
72924;SDS011;61070;50.794;7.054;2022-12-29T08:48:37;3.45;;;0.68;;
72924;SDS011;61070;50.794;7.054;2022-12-29T08:51:02;4.40;;;0.57;;
72924;SDS011;61070;50.794;7.054;2022-12-29T08:53:28;4.15;;;0.57;;
72924;SDS011;61070;50.794;7.054;2022-12-29T08:55:57;2.72;;;0.93;;
72924;SDS011;61070;50.794;7.054;2022-12-29T08:58:24;1.35;;;0.57;;
72924;SDS011;61070;50.794;7.054;2022-12-29T09:00:51;1.58;;;0.70;;
72924;SDS011;61070;50.794;7.054;2022-12-29T09:03:18;3.42;;;0.63;;
72924;SDS011;61070;50.794;7.054;2022-12-29T09:05:46;4.68;;;0.90;;
72924;SDS011;61070;50.794;7.054;2022-12-29T09:08:12;6.57;;;1.00;;
72924;SDS011;61070;50.794;7.054;2022-12-29T09:10:38;5.38;;;1.45;;
72924;SDS011;61070;50.794;7.054;2022-12-29T09:13:03;1.67;;;0.82;;
72924;SDS011;61070;50.794;7.054;2022-12-29T09:15:28;5.13;;;0.73;;
72924;SDS011;61070;50.794;7.054;2022-12-29T09:17:54;3.90;;;0.80;;
72924;SDS011;61070;50.794;7.054;2022-12-29T09:20:20;4.88;;;0.65;;
72924;SDS011;61070;50.794;7.054;2022-12-29T09:22:45;9.32;;;1.85;;
72924;SDS011;61070;50.794;7.054;2022-12-29T09:25:12;5.20;;;1.15;;
72924;SDS011;61070;50.794;7.054;2022-12-29T09:27:38;3.58;;;1.00;;
72924;SDS011;61070;50.794;7.054;2022-12-29T09:30:04;2.30;;;0.95;;
72924;SDS011;61070;50.794;7.054;2022-12-29T09:32:31;4.00;;;1.35;;
72924;SDS011;61070;50.794;7.054;2022-12-29T09:34:57;8.82;;;0.98;;
72924;SDS011;61070;50.794;7.054;2022-12-29T09:37:23;3.40;;;0.80;;
72924;SDS011;61070;50.794;7.054;2022-12-29T09:39:48;12.98;;;5.13;;
72924;SDS011;61070;50.794;7.054;2022-12-29T09:45:14;9.10;;;2.42;;
72924;SDS011;61070;50.794;7.054;2022-12-29T09:47:42;14.55;;;2.70;;
72924;SDS011;61070;50.794;7.054;2022-12-29T09:50:23;3.65;;;0.90;;
72924;SDS011;61070;50.794;7.054;2022-12-29T09:55:47;10.60;;;3.20;;
72924;SDS011;61070;50.794;7.054;2022-12-29T10:01:09;10.45;;;2.28;;
72924;SDS011;61070;50.794;7.054;2022-12-29T10:03:46;9.40;;;2.05;;
72924;SDS011;61070;50.794;7.054;2022-12-29T10:08:57;16.75;;;4.72;;
72924;SDS011;61070;50.794;7.054;2022-12-29T10:25:47;5.95;;;1.27;;
72924;SDS011;61070;50.794;7.054;2022-12-29T10:28:20;6.95;;;1.55;;
72924;SDS011;61070;50.794;7.054;2022-12-29T10:30:48;9.05;;;1.00;;
72924;SDS011;61070;50.794;7.054;2022-12-29T10:33:26;8.80;;;1.75;;
72924;SDS011;61070;50.794;7.054;2022-12-29T10:35:56;10.88;;;2.58;;
72924;SDS011;61070;50.794;7.054;2022-12-29T10:41:03;6.25;;;1.00;;
72924;SDS011;61070;50.794;7.054;2022-12-29T10:46:17;5.95;;;1.30;;
72924;SDS011;61070;50.794;7.054;2022-12-29T10:48:45;8.32;;;1.33;;
72924;SDS011;61070;50.794;7.054;2022-12-29T10:51:15;8.30;;;1.35;;
72924;SDS011;61070;50.794;7.054;2022-12-29T10:56:42;7.78;;;1.33;;
72924;SDS011;61070;50.794;7.054;2022-12-29T10:59:20;9.25;;;1.33;;
72924;SDS011;61070;50.794;7.054;2022-12-29T11:02:05;8.02;;;0.90;;
72924;SDS011;61070;50.794;7.054;2022-12-29T11:07:20;6.30;;;1.60;;
72924;SDS011;61070;50.794;7.054;2022-12-29T11:09:46;11.43;;;1.83;;
72924;SDS011;61070;50.794;7.054;2022-12-29T11:12:18;11.27;;;1.52;;
72924;SDS011;61070;50.794;7.054;2022-12-29T11:15:00;16.73;;;3.47;;
72924;SDS011;61070;50.794;7.054;2022-12-29T11:17:46;5.90;;;1.30;;
72924;SDS011;61070;50.794;7.054;2022-12-29T11:20:46;6.85;;;2.00;;
72924;SDS011;61070;50.794;7.054;2022-12-29T11:23:05;5.82;;;0.95;;
72924;SDS011;61070;50.794;7.054;2022-12-29T11:26:32;4.88;;;1.15;;
72924;SDS011;61070;50.794;7.054;2022-12-29T11:28:46;5.22;;;1.13;;
72924;SDS011;61070;50.794;7.054;2022-12-29T11:31:16;10.88;;;1.70;;
72924;SDS011;61070;50.794;7.054;2022-12-29T11:33:42;5.18;;;1.77;;
72924;SDS011;61070;50.794;7.054;2022-12-29T11:36:11;4.65;;;1.10;;
72924;SDS011;61070;50.794;7.054;2022-12-29T11:38:40;9.50;;;1.75;;
72924;SDS011;61070;50.794;7.054;2022-12-29T11:41:11;6.82;;;1.58;;
72924;SDS011;61070;50.794;7.054;2022-12-29T11:43:39;11.82;;;2.47;;
72924;SDS011;61070;50.794;7.054;2022-12-29T11:46:12;7.17;;;1.53;;
72924;SDS011;61070;50.794;7.054;2022-12-29T11:48:41;6.93;;;1.20;;
72924;SDS011;61070;50.794;7.054;2022-12-29T11:51:07;6.43;;;1.15;;
72924;SDS011;61070;50.794;7.054;2022-12-29T11:53:42;7.78;;;1.42;;
72924;SDS011;61070;50.794;7.054;2022-12-29T11:56:12;14.43;;;3.13;;
72924;SDS011;61070;50.794;7.054;2022-12-29T11:58:40;8.48;;;0.75;;
72924;SDS011;61070;50.794;7.054;2022-12-29T12:01:09;8.88;;;1.45;;
72924;SDS011;61070;50.794;7.054;2022-12-29T12:06:36;9.10;;;2.15;;
72924;SDS011;61070;50.794;7.054;2022-12-29T12:09:14;19.02;;;4.88;;
72924;SDS011;61070;50.794;7.054;2022-12-29T12:11:44;22.27;;;5.55;;
72924;SDS011;61070;50.794;7.054;2022-12-29T12:14:15;5.35;;;1.20;;
72924;SDS011;61070;50.794;7.054;2022-12-29T12:21:54;5.07;;;2.10;;
72924;SDS011;61070;50.794;7.054;2022-12-29T12:24:44;10.88;;;2.13;;
72924;SDS011;61070;50.794;7.054;2022-12-29T12:34:59;18.55;;;2.50;;
72924;SDS011;61070;50.794;7.054;2022-12-29T12:37:31;8.35;;;1.55;;
72924;SDS011;61070;50.794;7.054;2022-12-29T12:40:15;7.43;;;1.95;;
72924;SDS011;61070;50.794;7.054;2022-12-29T12:54:20;10.73;;;2.90;;
72924;SDS011;61070;50.794;7.054;2022-12-29T13:32:44;6.70;;;1.35;;
72924;SDS011;61070;50.794;7.054;2022-12-29T13:35:28;5.72;;;1.52;;
72924;SDS011;61070;50.794;7.054;2022-12-29T13:38:11;6.97;;;1.37;;
72924;SDS011;61070;50.794;7.054;2022-12-29T13:40:45;6.35;;;1.50;;
72924;SDS011;61070;50.794;7.054;2022-12-29T13:43:16;7.68;;;1.67;;
72924;SDS011;61070;50.794;7.054;2022-12-29T13:45:43;9.63;;;1.63;;
72924;SDS011;61070;50.794;7.054;2022-12-29T13:50:42;6.05;;;2.80;;
72924;SDS011;61070;50.794;7.054;2022-12-29T13:56:17;5.18;;;1.48;;
72924;SDS011;61070;50.794;7.054;2022-12-29T14:02:16;13.10;;;1.90;;
72924;SDS011;61070;50.794;7.054;2022-12-29T14:07:48;16.90;;;2.17;;
72924;SDS011;61070;50.794;7.054;2022-12-29T14:13:13;5.90;;;1.27;;
72924;SDS011;61070;50.794;7.054;2022-12-29T14:15:42;7.85;;;1.73;;
72924;SDS011;61070;50.794;7.054;2022-12-29T14:20:38;12.73;;;1.77;;
72924;SDS011;61070;50.794;7.054;2022-12-29T14:23:16;7.00;;;1.60;;
72924;SDS011;61070;50.794;7.054;2022-12-29T14:28:29;10.05;;;4.32;;
72924;SDS011;61070;50.794;7.054;2022-12-29T14:30:59;6.88;;;2.17;;
72924;SDS011;61070;50.794;7.054;2022-12-29T14:33:27;8.02;;;1.60;;
72924;SDS011;61070;50.794;7.054;2022-12-29T14:35:55;9.18;;;1.45;;
72924;SDS011;61070;50.794;7.054;2022-12-29T14:38:25;6.50;;;1.60;;
72924;SDS011;61070;50.794;7.054;2022-12-29T14:40:52;11.52;;;1.75;;
72924;SDS011;61070;50.794;7.054;2022-12-29T14:43:40;10.20;;;2.13;;
72924;SDS011;61070;50.794;7.054;2022-12-29T14:46:18;11.35;;;4.05;;
72924;SDS011;61070;50.794;7.054;2022-12-29T14:48:43;8.57;;;2.45;;
72924;SDS011;61070;50.794;7.054;2022-12-29T14:51:20;8.82;;;2.92;;
72924;SDS011;61070;50.794;7.054;2022-12-29T14:53:53;7.18;;;1.40;;
72924;SDS011;61070;50.794;7.054;2022-12-29T14:56:19;12.73;;;2.63;;
72924;SDS011;61070;50.794;7.054;2022-12-29T14:58:53;13.48;;;2.72;;
72924;SDS011;61070;50.794;7.054;2022-12-29T15:01:26;8.43;;;3.08;;
72924;SDS011;61070;50.794;7.054;2022-12-29T15:04:18;13.77;;;3.47;;
72924;SDS011;61070;50.794;7.054;2022-12-29T15:06:45;9.15;;;2.83;;
72924;SDS011;61070;50.794;7.054;2022-12-29T15:09:23;8.93;;;3.00;;
72924;SDS011;61070;50.794;7.054;2022-12-29T15:11:55;11.68;;;3.42;;
72924;SDS011;61070;50.794;7.054;2022-12-29T15:16:58;11.82;;;2.40;;
72924;SDS011;61070;50.794;7.054;2022-12-29T15:19:24;11.20;;;1.73;;
72924;SDS011;61070;50.794;7.054;2022-12-29T15:21:50;8.23;;;2.10;;
72924;SDS011;61070;50.794;7.054;2022-12-29T15:24:17;14.25;;;3.08;;
72924;SDS011;61070;50.794;7.054;2022-12-29T15:26:42;8.43;;;1.80;;
72924;SDS011;61070;50.794;7.054;2022-12-29T15:29:30;6.07;;;1.80;;
72924;SDS011;61070;50.794;7.054;2022-12-29T15:31:58;4.32;;;1.83;;
72924;SDS011;61070;50.794;7.054;2022-12-29T15:34:25;8.50;;;1.63;;
72924;SDS011;61070;50.794;7.054;2022-12-29T15:36:55;9.77;;;1.90;;
72924;SDS011;61070;50.794;7.054;2022-12-29T15:39:20;5.45;;;1.67;;
72924;SDS011;61070;50.794;7.054;2022-12-29T15:41:56;5.88;;;1.48;;
72924;SDS011;61070;50.794;7.054;2022-12-29T15:46:54;8.27;;;1.80;;
72924;SDS011;61070;50.794;7.054;2022-12-29T15:49:19;7.18;;;2.22;;
72924;SDS011;61070;50.794;7.054;2022-12-29T15:51:45;4.38;;;1.63;;
72924;SDS011;61070;50.794;7.054;2022-12-29T15:54:15;8.30;;;1.83;;
72924;SDS011;61070;50.794;7.054;2022-12-29T15:56:42;3.45;;;1.48;;
72924;SDS011;61070;50.794;7.054;2022-12-29T15:59:28;5.65;;;1.20;;
72924;SDS011;61070;50.794;7.054;2022-12-29T16:01:58;6.88;;;1.80;;
72924;SDS011;61070;50.794;7.054;2022-12-29T16:04:29;3.20;;;1.20;;
72924;SDS011;61070;50.794;7.054;2022-12-29T16:06:57;8.43;;;2.05;;
72924;SDS011;61070;50.794;7.054;2022-12-29T16:09:35;10.48;;;2.72;;
72924;SDS011;61070;50.794;7.054;2022-12-29T16:12:07;4.72;;;1.30;;
72924;SDS011;61070;50.794;7.054;2022-12-29T16:14:42;11.38;;;1.55;;
72924;SDS011;61070;50.794;7.054;2022-12-29T16:17:17;7.50;;;1.77;;
72924;SDS011;61070;50.794;7.054;2022-12-29T16:19:51;9.25;;;1.63;;
72924;SDS011;61070;50.794;7.054;2022-12-29T16:22:22;3.75;;;1.30;;
72924;SDS011;61070;50.794;7.054;2022-12-29T16:24:57;7.07;;;1.73;;
72924;SDS011;61070;50.794;7.054;2022-12-29T16:27:27;6.53;;;1.35;;
72924;SDS011;61070;50.794;7.054;2022-12-29T16:29:57;12.45;;;1.58;;
72924;SDS011;61070;50.794;7.054;2022-12-29T16:32:48;12.50;;;1.98;;
72924;SDS011;61070;50.794;7.054;2022-12-29T16:35:25;10.52;;;2.00;;
72924;SDS011;61070;50.794;7.054;2022-12-29T16:38:07;7.93;;;2.10;;
72924;SDS011;61070;50.794;7.054;2022-12-29T16:40:49;7.78;;;1.95;;
72924;SDS011;61070;50.794;7.054;2022-12-29T16:50:41;14.87;;;2.17;;
72924;SDS011;61070;50.794;7.054;2022-12-29T16:55:53;11.85;;;2.47;;
72924;SDS011;61070;50.794;7.054;2022-12-29T16:58:26;15.45;;;4.30;;
72924;SDS011;61070;50.794;7.054;2022-12-29T17:00:55;32.10;;;7.72;;
72924;SDS011;61070;50.794;7.054;2022-12-29T17:03:23;31.95;;;8.43;;
72924;SDS011;61070;50.794;7.054;2022-12-29T17:06:04;15.00;;;4.15;;
72924;SDS011;61070;50.794;7.054;2022-12-29T17:08:38;15.65;;;3.20;;
72924;SDS011;61070;50.794;7.054;2022-12-29T17:11:04;11.95;;;3.50;;
72924;SDS011;61070;50.794;7.054;2022-12-29T17:13:48;10.52;;;2.70;;
72924;SDS011;61070;50.794;7.054;2022-12-29T17:16:13;12.68;;;2.83;;
72924;SDS011;61070;50.794;7.054;2022-12-29T17:18:39;15.35;;;2.17;;
72924;SDS011;61070;50.794;7.054;2022-12-29T17:21:04;9.50;;;2.55;;
72924;SDS011;61070;50.794;7.054;2022-12-29T17:23:30;10.90;;;2.70;;
72924;SDS011;61070;50.794;7.054;2022-12-29T17:25:57;12.10;;;2.90;;
72924;SDS011;61070;50.794;7.054;2022-12-29T17:28:27;10.43;;;2.40;;
72924;SDS011;61070;50.794;7.054;2022-12-29T17:30:58;10.82;;;2.35;;
72924;SDS011;61070;50.794;7.054;2022-12-29T17:33:25;13.52;;;2.42;;
72924;SDS011;61070;50.794;7.054;2022-12-29T17:35:53;16.65;;;2.53;;
72924;SDS011;61070;50.794;7.054;2022-12-29T17:38:19;8.73;;;1.83;;
72924;SDS011;61070;50.794;7.054;2022-12-29T17:40:47;9.93;;;2.20;;
72924;SDS011;61070;50.794;7.054;2022-12-29T17:43:14;8.40;;;2.30;;